Airfield :
LOGIN :

Register | Disclaimer

   EN    FR    IT 

 










Legend :    VFR   Marginal VFR   IFR   Intensive IFR   Very Intensive IFR
Visi :
Ceiling :
>= 8 km
>= 3000ft
5 to 8 km
1000 to 3000 ft
1500m to 5 km
500 to 1000 ft
800 to 1500m
200 to 500 ft
< 800m
< 200 ft
Symbols :   Thunderstorms  Fog  Heavy snow  Heavy precipitations  Wind > 20 kt
SIGMETs :     Misc.  Thunderstorms  Icing  Turbulence  Mountain Waves  Volcanic Ashes






- Airport Elevation : 53 ft
- IATA code : HAM


EDDH - Hamburg

CURRENT METAR :
  • 270950Z 21015G25KT 9999 FEW017 BKN028 11/07 Q1004 NOSIG

EXPIRED METARs :
  • 270920Z 21016KT 9999 BKN016 11/07 Q1004 TEMPO 21015G25KT
  • 270850Z 19012KT 9999 FEW016 11/07 Q1004 TEMPO 21015G25KT
  • 270820Z 20013KT 9999 FEW016 10/07 Q1003 NOSIG
  • 270750Z 19014KT 9999 FEW016 10/07 Q1003 NOSIG
  • 270720Z 19010KT 9999 FEW016 09/06 Q1003 NOSIG
  • 270650Z 19013KT 9999 BKN016 09/06 Q1003 NOSIG

TAF TAF EDDH
Valid from the 27 at 06:00 until the 28 at 12:00 UTC


270500Z 2706/2812 19008KT 9999 SCT025
BECMG 2706/2709 20013KT
TEMPO 2709/2715 21015G25KT SHRA BKN020CB
BECMG 2714/2716 18008KT
TEMPO 2723/2804 19015G25KT RA
BECMG 2801/2804 BKN012
TEMPO 2804/2810 4000 -RADZ BKN008
BECMG 2807/2810 21013KT SCT020
TEMPO 2810/2812 22015G25KT SHRA BKN015CB



MET'MAP, your aeronautical weather chart ! - Copyright ORBIFLY December 2007 - Disclaimer

ORBIFLY MET'MAP TEAM :

Programming & Development : Alexandra Zaïnal
Concept & original design : Baudouin d'Aumeries
Assistance for programming : Marc-Olivier Méhu
Technical & hardware support : Manuel Goepfert

Contact : metmap@orbifly.com




SOURCES & CREDITS :

   NOAA